Flight Track Log - Related Links

Times and Time Zones

All times are in EDT time to prevent confusion due to time zone crossing. See the ASQ5300 flight status page for this flight to view local times or setup timezone preferences in your user account.

Time Position Orientation Groundspeed Altitude Reporting Facility
EDT Latitude Longitude Course Direction KTS MPH feet Rate Location/Type
Sat 12:51:52 PM 33.6333 -84.4667 270° West 166 191 2,400  Level Atlanta TRACON
Sat 12:52:52 PM 33.6333 -84.5333 270° West 247 284 3,800 2,100 Climbing Atlanta TRACON
Sat 12:53:52 PM 33.6000 -84.6000 239° Southwest 269 310 6,600 1,939 Climbing Atlanta TRACON
Sat 12:56:10 PM 33.4214 -84.5864 176° South 298 343 10,200 1,576 Climbing Atlanta Center
Sat 12:57:10 PM 33.3256 -84.5683 171° South 336 387 11,800 1,700 Climbing Atlanta Center
Sat 12:58:10 PM 33.2233 -84.5503 172° South 368 423 13,600 1,850 Climbing Atlanta Center
Sat 12:59:10 PM 33.1233 -84.5325 172° South 368 423 15,500 1,700 Climbing Atlanta Center
Sat 01:00:10 PM 33.0272 -84.5492 188° South 355 409 17,000 1,250 Climbing Atlanta Center
Sat 01:01:10 PM 32.9372 -84.5933 202° Southwest 353 406 18,000 1,000 Climbing Atlanta Center
Sat 01:02:10 PM 32.8325 -84.6419 201° Southwest 365 420 19,000 1,000 Climbing Atlanta Center
Sat 01:03:10 PM 32.7447 -84.6808 200° South 376 433 20,000 1,000 Climbing Atlanta Center
Sat 01:04:10 PM 32.6464 -84.7297 203° Southwest 376 433 21,000 1,000 Climbing Atlanta Center
Sat 01:05:10 PM 32.5458 -84.7756 201° Southwest 376 433 22,000 500 Climbing Atlanta Center
Sat 01:06:10 PM 32.4456 -84.8264 203° Southwest 381 438 22,000  Level Atlanta Center
Sat 01:07:10 PM 32.3283 -84.8769 200° South 394 453 22,000  Level Atlanta Center
Sat 01:09:26 PM 32.0864 -84.9917 202° Southwest 423 487 22,000  Level Jacksonville Center
Sat 01:10:26 PM 31.9728 -85.0453 202° Southwest 433 498 22,000  Level Jacksonville Center
Sat 01:11:26 PM 31.8486 -85.1058 203° Southwest 438 504 22,000  Level Jacksonville Center
Sat 01:12:26 PM 31.7475 -85.1525 201° Southwest 438 504 22,000 -500 Level Jacksonville Center
Sat 01:13:26 PM 31.6339 -85.2058 202° Southwest 438 504 21,000 -1,429 Descending Jacksonville Center
Sat 01:13:50 PM 31.5833 -85.2314 203° Southwest 436 502 20,000 -2,000 Descending Jacksonville Center
Sat 01:14:26 PM 31.5203 -85.2589 200° South 438 504 19,000 -1,813 Descending Jacksonville Center
Sat 01:15:26 PM 31.4086 -85.3097 201° Southwest 438 504 17,100 -1,950 Descending Jacksonville Center
Sat 01:16:26 PM 31.3075 -85.3581 202° Southwest 420 483 15,100 -1,969 Descending Jacksonville Center
Sat 01:17:34 PM 31.1894 -85.4133 202° Southwest 349 402 12,900 -1,650 Descending Jacksonville Center
Sat 01:18:26 PM 31.1242 -85.4408 200° South 364 419 11,800 -1,232 Descending Jacksonville Center
Sat 01:19:26 PM 31.0483 -85.4775 203° Southwest 327 376 10,600 -1,300 Descending Jacksonville Center
Sat 01:20:26 PM 30.9786 -85.5119 203° Southwest 294 338 9,200 -1,300 Descending Jacksonville Center
Sat 01:21:26 PM 30.9092 -85.5389 198° South 277 319 8,000 -1,200 Descending Jacksonville Center
Sat 01:22:26 PM 30.8497 -85.5858 214° Southwest 265 305 6,800 -1,350 Descending Jacksonville Center
Sat 01:23:26 PM 30.7947 -85.6253 212° Southwest 254 292 5,300 -1,500 Descending Jacksonville Center
Sat 01:25:00 PM 30.6499 -85.6524 200° South  Level FlightAware Approximate
Sat 01:32:00 PM 30.3500 -85.7833 203° Southwest  Level FlightAware Approximate
Sat 01:33:00 PM 30.3582 -85.7956 203° Southwest  Level Estimated
Sat 01:34:00 PM 30.3582 -85.7956 203° Southwest  Level Estimated
Sat 01:35:00 PM 30.3582 -85.7956 203° Southwest  Level Estimated
Sat 01:36:00 PM 30.3582 -85.7956 203° Southwest  Level Estimated
Sat 01:37:00 PM 30.3582 -85.7956 203° Southwest  Level Estimated
Sat 01:38:00 PM 30.3582 -85.7956 203° Southwest  Level Estimated
Sat 01:39:00 PM 30.3582 -85.7956 203° Southwest  Level Estimated
Sat 01:40:00 PM 30.3582 -85.7956 203° Southwest  Level Estimated

Login

Don't have an account? Register now (free) for customized features, flight alerts, and more!